sensor_id;sensor_type;location;lat;lon;timestamp;pressure;altitude;pressure_sealevel;temperature
72054;BMP280;59918;51.280;7.950;2023-03-23T00:01:52;96948.03;;;10.48
72054;BMP280;59918;51.280;7.950;2023-03-23T00:04:17;96939.53;;;10.47
72054;BMP280;59918;51.280;7.950;2023-03-23T00:06:42;96943.09;;;10.46
72054;BMP280;59918;51.280;7.950;2023-03-23T00:09:08;96953.94;;;10.48
72054;BMP280;59918;51.280;7.950;2023-03-23T00:11:33;96955.75;;;10.48
72054;BMP280;59918;51.280;7.950;2023-03-23T00:13:59;96945.69;;;10.46
72054;BMP280;59918;51.280;7.950;2023-03-23T00:16:25;96943.09;;;10.46
72054;BMP280;59918;51.280;7.950;2023-03-23T00:18:50;96945.47;;;10.48
72054;BMP280;59918;51.280;7.950;2023-03-23T00:21:15;96944.66;;;10.47
72054;BMP280;59918;51.280;7.950;2023-03-23T00:23:41;96938.75;;;10.47
72054;BMP280;59918;51.280;7.950;2023-03-23T00:26:06;96946.25;;;10.48
72054;BMP280;59918;51.280;7.950;2023-03-23T00:28:31;96937.50;;;10.49
72054;BMP280;59918;51.280;7.950;2023-03-23T00:31:00;96930.34;;;10.51
72054;BMP280;59918;51.280;7.950;2023-03-23T00:33:32;96934.28;;;10.54
72054;BMP280;59918;51.280;7.950;2023-03-23T00:35:58;96926.34;;;10.55
72054;BMP280;59918;51.280;7.950;2023-03-23T00:38:24;96929.47;;;10.57
72054;BMP280;59918;51.280;7.950;2023-03-23T00:40:49;96914.84;;;10.57
72054;BMP280;59918;51.280;7.950;2023-03-23T00:43:15;96914.59;;;10.59
72054;BMP280;59918;51.280;7.950;2023-03-23T00:45:40;96902.56;;;10.59
72054;BMP280;59918;51.280;7.950;2023-03-23T00:48:05;96900.19;;;10.58
72054;BMP280;59918;51.280;7.950;2023-03-23T00:50:30;96901.75;;;10.59
72054;BMP280;59918;51.280;7.950;2023-03-23T00:52:56;96903.53;;;10.58
72054;BMP280;59918;51.280;7.950;2023-03-23T00:55:21;96918.75;;;10.60
72054;BMP280;59918;51.280;7.950;2023-03-23T00:57:46;96898.94;;;10.60
72054;BMP280;59918;51.280;7.950;2023-03-23T01:00:11;96895.63;;;10.60
72054;BMP280;59918;51.280;7.950;2023-03-23T01:02:36;96901.75;;;10.59
72054;BMP280;59918;51.280;7.950;2023-03-23T01:05:01;96896.28;;;10.56
72054;BMP280;59918;51.280;7.950;2023-03-23T01:07:27;96897.28;;;10.55
72054;BMP280;59918;51.280;7.950;2023-03-23T01:09:52;96888.78;;;10.54
72054;BMP280;59918;51.280;7.950;2023-03-23T01:12:17;96892.16;;;10.55
72054;BMP280;59918;51.280;7.950;2023-03-23T01:14:42;96905.75;;;10.55
72054;BMP280;59918;51.280;7.950;2023-03-23T01:17:07;96907.34;;;10.56
72054;BMP280;59918;51.280;7.950;2023-03-23T01:19:32;96897.84;;;10.56
72054;BMP280;59918;51.280;7.950;2023-03-23T01:21:57;96878.84;;;10.57
72054;BMP280;59918;51.280;7.950;2023-03-23T01:24:23;96885.53;;;10.58
72054;BMP280;59918;51.280;7.950;2023-03-23T01:26:48;96872.47;;;10.60
72054;BMP280;59918;51.280;7.950;2023-03-23T01:29:13;96868.31;;;10.59
72054;BMP280;59918;51.280;7.950;2023-03-23T01:31:38;96863.44;;;10.57
72054;BMP280;59918;51.280;7.950;2023-03-23T01:34:03;96882.41;;;10.56
72054;BMP280;59918;51.280;7.950;2023-03-23T01:36:29;96867.78;;;10.57
72054;BMP280;59918;51.280;7.950;2023-03-23T01:38:54;96870.91;;;10.59
72054;BMP280;59918;51.280;7.950;2023-03-23T01:41:20;96868.31;;;10.59
72054;BMP280;59918;51.280;7.950;2023-03-23T01:43:56;96858.59;;;10.61
72054;BMP280;59918;51.280;7.950;2023-03-23T01:46:21;96854.00;;;10.63
72054;BMP280;59918;51.280;7.950;2023-03-23T01:48:46;96855.13;;;10.67
72054;BMP280;59918;51.280;7.950;2023-03-23T01:51:12;96863.38;;;10.69
72054;BMP280;59918;51.280;7.950;2023-03-23T01:53:40;96864.75;;;10.71
72054;BMP280;59918;51.280;7.950;2023-03-23T01:56:07;96870.31;;;10.68
72054;BMP280;59918;51.280;7.950;2023-03-23T01:58:34;96864.63;;;10.66
72054;BMP280;59918;51.280;7.950;2023-03-23T02:01:01;96878.94;;;10.62
72054;BMP280;59918;51.280;7.950;2023-03-23T02:03:28;96880.06;;;10.55
72054;BMP280;59918;51.280;7.950;2023-03-23T02:05:54;96877.06;;;10.47
72054;BMP280;59918;51.280;7.950;2023-03-23T02:08:19;96875.16;;;10.42
72054;BMP280;59918;51.280;7.950;2023-03-23T02:10:44;96873.50;;;10.36
72054;BMP280;59918;51.280;7.950;2023-03-23T02:13:11;96865.44;;;10.33
72054;BMP280;59918;51.280;7.950;2023-03-23T02:30:47;96869.78;;;10.10
72054;BMP280;59918;51.280;7.950;2023-03-23T02:36:05;96869.13;;;10.03
72054;BMP280;59918;51.280;7.950;2023-03-23T02:38:34;96865.75;;;10.02
72054;BMP280;59918;51.280;7.950;2023-03-23T02:41:01;96864.97;;;10.02
72054;BMP280;59918;51.280;7.950;2023-03-23T02:43:28;96866.00;;;10.01
72054;BMP280;59918;51.280;7.950;2023-03-23T02:45:55;96872.34;;;9.98
72054;BMP280;59918;51.280;7.950;2023-03-23T02:48:22;96868.78;;;9.99
72054;BMP280;59918;51.280;7.950;2023-03-23T02:50:49;96872.34;;;9.98
72054;BMP280;59918;51.280;7.950;2023-03-23T02:53:16;96870.03;;;9.97
72054;BMP280;59918;51.280;7.950;2023-03-23T02:55:43;96866.66;;;9.96
72054;BMP280;59918;51.280;7.950;2023-03-23T02:58:09;96868.66;;;9.94
72054;BMP280;59918;51.280;7.950;2023-03-23T03:00:35;96876.34;;;9.94
72054;BMP280;59918;51.280;7.950;2023-03-23T03:03:00;96857.03;;;9.92
72054;BMP280;59918;51.280;7.950;2023-03-23T03:10:31;96854.34;;;9.87
72054;BMP280;59918;51.280;7.950;2023-03-23T03:15:31;96841.94;;;9.84
72054;BMP280;59918;51.280;7.950;2023-03-23T03:20:29;96809.78;;;9.82
72054;BMP280;59918;51.280;7.950;2023-03-23T03:22:55;96804.09;;;9.80
72054;BMP280;59918;51.280;7.950;2023-03-23T03:25:21;96801.75;;;9.78
72054;BMP280;59918;51.280;7.950;2023-03-23T03:27:46;96785.00;;;9.76
72054;BMP280;59918;51.280;7.950;2023-03-23T03:30:12;96795.50;;;9.74
72054;BMP280;59918;51.280;7.950;2023-03-23T03:32:40;96798.50;;;9.71
72054;BMP280;59918;51.280;7.950;2023-03-23T03:35:07;96785.34;;;9.68
72054;BMP280;59918;51.280;7.950;2023-03-23T03:37:35;96794.28;;;9.65
72054;BMP280;59918;51.280;7.950;2023-03-23T03:40:01;96797.06;;;9.64
72054;BMP280;59918;51.280;7.950;2023-03-23T03:42:26;96804.19;;;9.62
72054;BMP280;59918;51.280;7.950;2023-03-23T03:44:51;96803.41;;;9.61
72054;BMP280;59918;51.280;7.950;2023-03-23T03:47:16;96795.94;;;9.60
72054;BMP280;59918;51.280;7.950;2023-03-23T03:49:41;96808.00;;;9.59
72054;BMP280;59918;51.280;7.950;2023-03-23T03:52:06;96810.56;;;9.59
72054;BMP280;59918;51.280;7.950;2023-03-23T03:54:31;96808.00;;;9.59
72054;BMP280;59918;51.280;7.950;2023-03-23T03:56:56;96810.31;;;9.61
72054;BMP280;59918;51.280;7.950;2023-03-23T03:59:22;96814.25;;;9.63
72054;BMP280;59918;51.280;7.950;2023-03-23T04:01:47;96809.66;;;9.65
72054;BMP280;59918;51.280;7.950;2023-03-23T04:04:12;96801.97;;;9.65
72054;BMP280;59918;51.280;7.950;2023-03-23T04:06:37;96800.19;;;9.66
72054;BMP280;59918;51.280;7.950;2023-03-23T04:09:02;96807.66;;;9.67
72054;BMP280;59918;51.280;7.950;2023-03-23T04:11:28;96815.69;;;9.71
72054;BMP280;59918;51.280;7.950;2023-03-23T04:13:53;96818.59;;;9.74
72054;BMP280;59918;51.280;7.950;2023-03-23T04:16:18;96812.47;;;9.75
72054;BMP280;59918;51.280;7.950;2023-03-23T04:18:43;96835.69;;;9.80
72054;BMP280;59918;51.280;7.950;2023-03-23T04:21:09;96833.25;;;9.85
72054;BMP280;59918;51.280;7.950;2023-03-23T04:23:34;96813.25;;;9.87
72054;BMP280;59918;51.280;7.950;2023-03-23T04:26:00;96838.47;;;9.90
72054;BMP280;59918;51.280;7.950;2023-03-23T04:28:25;96827.25;;;9.91
72054;BMP280;59918;51.280;7.950;2023-03-23T04:30:51;96821.88;;;9.92
72054;BMP280;59918;51.280;7.950;2023-03-23T04:33:17;96812.41;;;9.93
72054;BMP280;59918;51.280;7.950;2023-03-23T04:35:42;96821.66;;;9.94
72054;BMP280;59918;51.280;7.950;2023-03-23T04:38:08;96820.66;;;9.95
72054;BMP280;59918;51.280;7.950;2023-03-23T04:40:35;96822.78;;;9.98
72054;BMP280;59918;51.280;7.950;2023-03-23T04:43:01;96809.50;;;10.01
72054;BMP280;59918;51.280;7.950;2023-03-23T04:45:26;96813.84;;;10.00
72054;BMP280;59918;51.280;7.950;2023-03-23T04:47:51;96822.91;;;10.03
72054;BMP280;59918;51.280;7.950;2023-03-23T04:50:16;96824.44;;;10.04
72054;BMP280;59918;51.280;7.950;2023-03-23T04:52:41;96815.75;;;10.05
72054;BMP280;59918;51.280;7.950;2023-03-23T04:55:07;96819.66;;;10.07
72054;BMP280;59918;51.280;7.950;2023-03-23T04:57:32;96823.78;;;10.08
72054;BMP280;59918;51.280;7.950;2023-03-23T04:59:58;96824.78;;;10.07
72054;BMP280;59918;51.280;7.950;2023-03-23T05:02:23;96801.69;;;10.07
72054;BMP280;59918;51.280;7.950;2023-03-23T05:04:48;96819.22;;;10.10
72054;BMP280;59918;51.280;7.950;2023-03-23T05:07:13;96808.16;;;10.10
72054;BMP280;59918;51.280;7.950;2023-03-23T05:09:38;96823.00;;;10.08
72054;BMP280;59918;51.280;7.950;2023-03-23T05:12:04;96817.31;;;10.06
72054;BMP280;59918;51.280;7.950;2023-03-23T05:14:30;96814.72;;;10.06
72054;BMP280;59918;51.280;7.950;2023-03-23T05:16:55;96812.16;;;10.06
72054;BMP280;59918;51.280;7.950;2023-03-23T05:19:20;96807.03;;;10.06
72054;BMP280;59918;51.280;7.950;2023-03-23T05:21:45;96810.63;;;10.05
72054;BMP280;59918;51.280;7.950;2023-03-23T05:24:10;96824.25;;;10.05
72054;BMP280;59918;51.280;7.950;2023-03-23T05:26:35;96828.13;;;10.08
72054;BMP280;59918;51.280;7.950;2023-03-23T05:29:01;96826.13;;;10.10
72054;BMP280;59918;51.280;7.950;2023-03-23T05:31:26;96832.84;;;10.11
72054;BMP280;59918;51.280;7.950;2023-03-23T05:33:51;96828.03;;;10.14
72054;BMP280;59918;51.280;7.950;2023-03-23T05:36:17;96824.25;;;10.17
72054;BMP280;59918;51.280;7.950;2023-03-23T05:38:42;96828.91;;;10.19
72054;BMP280;59918;51.280;7.950;2023-03-23T05:41:07;96824.34;;;10.21
72054;BMP280;59918;51.280;7.950;2023-03-23T05:43:32;96840.78;;;10.20
72054;BMP280;59918;51.280;7.950;2023-03-23T05:45:58;96819.44;;;10.20
72054;BMP280;59918;51.280;7.950;2023-03-23T05:48:23;96825.34;;;10.20
72054;BMP280;59918;51.280;7.950;2023-03-23T05:50:48;96815.63;;;10.22
72054;BMP280;59918;51.280;7.950;2023-03-23T05:53:16;96823.91;;;10.24
72054;BMP280;59918;51.280;7.950;2023-03-23T05:55:41;96820.31;;;10.25
72054;BMP280;59918;51.280;7.950;2023-03-23T05:58:06;96819.75;;;10.23
72054;BMP280;59918;51.280;7.950;2023-03-23T06:00:31;96822.88;;;10.25
72054;BMP280;59918;51.280;7.950;2023-03-23T06:02:56;96822.44;;;10.28
72054;BMP280;59918;51.280;7.950;2023-03-23T06:05:22;96834.63;;;10.33
72054;BMP280;59918;51.280;7.950;2023-03-23T06:07:47;96837.31;;;10.38
72054;BMP280;59918;51.280;7.950;2023-03-23T06:10:12;96834.81;;;10.43
72054;BMP280;59918;51.280;7.950;2023-03-23T06:12:38;96832.59;;;10.46
72054;BMP280;59918;51.280;7.950;2023-03-23T06:15:04;96850.13;;;10.49
72054;BMP280;59918;51.280;7.950;2023-03-23T06:17:29;96837.81;;;10.51
72054;BMP280;59918;51.280;7.950;2023-03-23T06:19:54;96845.09;;;10.54
72054;BMP280;59918;51.280;7.950;2023-03-23T06:22:19;96835.38;;;10.56
72054;BMP280;59918;51.280;7.950;2023-03-23T06:24:44;96827.75;;;10.61
72054;BMP280;59918;51.280;7.950;2023-03-23T06:27:10;96838.38;;;10.64
72054;BMP280;59918;51.280;7.950;2023-03-23T06:29:36;96844.84;;;10.67
72054;BMP280;59918;51.280;7.950;2023-03-23T06:32:02;96847.41;;;10.67
72054;BMP280;59918;51.280;7.950;2023-03-23T06:34:28;96848.44;;;10.66
72054;BMP280;59918;51.280;7.950;2023-03-23T06:36:53;96887.56;;;10.68
72054;BMP280;59918;51.280;7.950;2023-03-23T06:39:18;96860.38;;;10.72
72054;BMP280;59918;51.280;7.950;2023-03-23T06:41:43;96870.78;;;10.77
72054;BMP280;59918;51.280;7.950;2023-03-23T06:44:08;96865.28;;;10.85
72054;BMP280;59918;51.280;7.950;2023-03-23T06:46:33;96876.78;;;10.93
72054;BMP280;59918;51.280;7.950;2023-03-23T06:48:59;96862.56;;;11.02
72054;BMP280;59918;51.280;7.950;2023-03-23T06:51:24;96867.66;;;11.14
72054;BMP280;59918;51.280;7.950;2023-03-23T06:53:49;96876.91;;;11.26
72054;BMP280;59918;51.280;7.950;2023-03-23T06:56:14;96877.88;;;11.36
72054;BMP280;59918;51.280;7.950;2023-03-23T06:58:39;96860.63;;;11.37
72054;BMP280;59918;51.280;7.950;2023-03-23T07:01:05;96871.84;;;11.31
72054;BMP280;59918;51.280;7.950;2023-03-23T07:03:30;96865.91;;;11.30
72054;BMP280;59918;51.280;7.950;2023-03-23T07:05:56;96880.34;;;11.31
72054;BMP280;59918;51.280;7.950;2023-03-23T07:08:21;96879.56;;;11.31
72054;BMP280;59918;51.280;7.950;2023-03-23T07:10:46;96879.00;;;11.29
72054;BMP280;59918;51.280;7.950;2023-03-23T07:13:12;96881.81;;;11.27
72054;BMP280;59918;51.280;7.950;2023-03-23T07:15:38;96879.00;;;11.29
72054;BMP280;59918;51.280;7.950;2023-03-23T07:18:03;96883.94;;;11.30
72054;BMP280;59918;51.280;7.950;2023-03-23T07:20:28;96880.66;;;11.35
72054;BMP280;59918;51.280;7.950;2023-03-23T07:22:53;96890.59;;;11.43
72054;BMP280;59918;51.280;7.950;2023-03-23T07:25:19;96893.16;;;11.43
72054;BMP280;59918;51.280;7.950;2023-03-23T07:27:44;96902.91;;;11.41
72054;BMP280;59918;51.280;7.950;2023-03-23T07:30:10;96905.41;;;11.36
72054;BMP280;59918;51.280;7.950;2023-03-23T07:32:35;96897.69;;;11.36
72054;BMP280;59918;51.280;7.950;2023-03-23T07:35:00;96894.78;;;11.32
72054;BMP280;59918;51.280;7.950;2023-03-23T07:37:25;96904.75;;;11.29
72054;BMP280;59918;51.280;7.950;2023-03-23T07:39:50;96902.72;;;11.31
72054;BMP280;59918;51.280;7.950;2023-03-23T07:42:15;96909.75;;;11.35
72054;BMP280;59918;51.280;7.950;2023-03-23T07:44:41;96906.50;;;11.40
72054;BMP280;59918;51.280;7.950;2023-03-23T07:47:06;96910.22;;;11.44
72054;BMP280;59918;51.280;7.950;2023-03-23T07:49:31;96898.78;;;11.51
72054;BMP280;59918;51.280;7.950;2023-03-23T07:51:56;96909.69;;;11.58
72054;BMP280;59918;51.280;7.950;2023-03-23T07:54:22;96903.97;;;11.67
72054;BMP280;59918;51.280;7.950;2023-03-23T07:56:47;96898.66;;;11.74
72054;BMP280;59918;51.280;7.950;2023-03-23T07:59:12;96896.63;;;11.76
72054;BMP280;59918;51.280;7.950;2023-03-23T08:01:37;96897.66;;;11.75
72054;BMP280;59918;51.280;7.950;2023-03-23T08:04:03;96892.25;;;11.76
72054;BMP280;59918;51.280;7.950;2023-03-23T08:06:28;96895.38;;;11.78
72054;BMP280;59918;51.280;7.950;2023-03-23T08:08:53;96902.09;;;11.79
72054;BMP280;59918;51.280;7.950;2023-03-23T08:11:18;96905.69;;;11.78
72054;BMP280;59918;51.280;7.950;2023-03-23T08:13:44;96898.28;;;11.82
72054;BMP280;59918;51.280;7.950;2023-03-23T08:16:09;96903.75;;;11.85
72054;BMP280;59918;51.280;7.950;2023-03-23T08:18:35;96898.38;;;11.87
72054;BMP280;59918;51.280;7.950;2023-03-23T08:21:01;96903.44;;;11.98
72054;BMP280;59918;51.280;7.950;2023-03-23T08:23:26;96915.31;;;11.99
72054;BMP280;59918;51.280;7.950;2023-03-23T08:25:51;96905.56;;;12.01
72054;BMP280;59918;51.280;7.950;2023-03-23T08:28:16;96903.53;;;12.03
72054;BMP280;59918;51.280;7.950;2023-03-23T08:30:42;96895.34;;;12.06
72054;BMP280;59918;51.280;7.950;2023-03-23T08:33:07;96898.31;;;12.14
72054;BMP280;59918;51.280;7.950;2023-03-23T08:35:32;96887.84;;;12.21
72054;BMP280;59918;51.280;7.950;2023-03-23T08:37:58;96893.63;;;12.28
72054;BMP280;59918;51.280;7.950;2023-03-23T08:40:23;96896.22;;;12.28
72054;BMP280;59918;51.280;7.950;2023-03-23T08:42:49;96890.09;;;12.34
72054;BMP280;59918;51.280;7.950;2023-03-23T08:45:16;96903.28;;;12.37
72054;BMP280;59918;51.280;7.950;2023-03-23T08:47:41;96893.84;;;12.42
72054;BMP280;59918;51.280;7.950;2023-03-23T08:50:07;96898.81;;;12.49
72054;BMP280;59918;51.280;7.950;2023-03-23T08:52:33;96898.41;;;12.57
72054;BMP280;59918;51.280;7.950;2023-03-23T08:54:58;96899.28;;;12.62
72054;BMP280;59918;51.280;7.950;2023-03-23T08:57:24;96904.75;;;12.66
72054;BMP280;59918;51.280;7.950;2023-03-23T08:59:49;96911.75;;;12.70
72054;BMP280;59918;51.280;7.950;2023-03-23T09:02:14;96904.44;;;12.78
72054;BMP280;59918;51.280;7.950;2023-03-23T09:04:39;96906.63;;;12.86
72054;BMP280;59918;51.280;7.950;2023-03-23T09:07:05;96905.53;;;12.82
72054;BMP280;59918;51.280;7.950;2023-03-23T09:09:30;96897.06;;;12.87
72054;BMP280;59918;51.280;7.950;2023-03-23T09:11:55;96904.72;;;12.98
72054;BMP280;59918;51.280;7.950;2023-03-23T09:14:20;96902.47;;;13.07
72054;BMP280;59918;51.280;7.950;2023-03-23T09:16:45;96919.81;;;13.11
72054;BMP280;59918;51.280;7.950;2023-03-23T09:19:10;96923.00;;;13.18
72054;BMP280;59918;51.280;7.950;2023-03-23T09:21:36;96906.81;;;13.22
72054;BMP280;59918;51.280;7.950;2023-03-23T09:24:01;96907.16;;;13.31
72054;BMP280;59918;51.280;7.950;2023-03-23T09:26:26;96910.16;;;13.44
72054;BMP280;59918;51.280;7.950;2023-03-23T09:28:52;96918.34;;;13.62
72054;BMP280;59918;51.280;7.950;2023-03-23T09:31:17;96908.81;;;13.63
72054;BMP280;59918;51.280;7.950;2023-03-23T09:33:42;96922.34;;;13.75
72054;BMP280;59918;51.280;7.950;2023-03-23T09:36:07;96933.66;;;13.95
72054;BMP280;59918;51.280;7.950;2023-03-23T09:38:32;96916.09;;;14.23
72054;BMP280;59918;51.280;7.950;2023-03-23T09:48:55;96942.59;;;13.83
72054;BMP280;59918;51.280;7.950;2023-03-23T09:53:53;96954.81;;;13.66
72054;BMP280;59918;51.280;7.950;2023-03-23T09:56:19;96944.59;;;13.54
72054;BMP280;59918;51.280;7.950;2023-03-23T09:58:46;96936.56;;;13.51
72054;BMP280;59918;51.280;7.950;2023-03-23T10:03:43;96948.97;;;13.12
72054;BMP280;59918;51.280;7.950;2023-03-23T10:06:13;96956.31;;;12.98
72054;BMP280;59918;51.280;7.950;2023-03-23T10:08:42;96949.53;;;12.92
72054;BMP280;59918;51.280;7.950;2023-03-23T10:11:27;96944.31;;;13.09
72054;BMP280;59918;51.280;7.950;2023-03-23T10:16:22;96950.25;;;13.30
72054;BMP280;59918;51.280;7.950;2023-03-23T10:21:14;96947.91;;;13.29
72054;BMP280;59918;51.280;7.950;2023-03-23T10:26:20;96954.00;;;13.02
72054;BMP280;59918;51.280;7.950;2023-03-23T10:28:48;96949.34;;;12.99
72054;BMP280;59918;51.280;7.950;2023-03-23T10:31:17;96948.31;;;13.00
72054;BMP280;59918;51.280;7.950;2023-03-23T10:33:44;96941.38;;;13.00
72054;BMP280;59918;51.280;7.950;2023-03-23T10:36:12;96944.50;;;13.02
72054;BMP280;59918;51.280;7.950;2023-03-23T10:38:38;96934.19;;;13.02
72054;BMP280;59918;51.280;7.950;2023-03-23T10:41:15;96945.50;;;13.01
72054;BMP280;59918;51.280;7.950;2023-03-23T10:43:41;96947.44;;;13.11
72054;BMP280;59918;51.280;7.950;2023-03-23T10:48:46;96939.81;;;13.42
72054;BMP280;59918;51.280;7.950;2023-03-23T10:51:12;96938.63;;;13.49
72054;BMP280;59918;51.280;7.950;2023-03-23T10:53:42;96934.56;;;13.58
72054;BMP280;59918;51.280;7.950;2023-03-23T10:56:19;96932.31;;;13.66
72054;BMP280;59918;51.280;7.950;2023-03-23T10:58:46;96935.50;;;13.73
72054;BMP280;59918;51.280;7.950;2023-03-23T11:01:11;96935.28;;;13.75
72054;BMP280;59918;51.280;7.950;2023-03-23T11:03:39;96948.75;;;13.82
72054;BMP280;59918;51.280;7.950;2023-03-23T11:06:37;96937.66;;;14.07
72054;BMP280;59918;51.280;7.950;2023-03-23T11:09:01;96948.31;;;14.42
72054;BMP280;59918;51.280;7.950;2023-03-23T11:11:28;96953.19;;;14.38
72054;BMP280;59918;51.280;7.950;2023-03-23T11:13:58;96948.59;;;14.45
72054;BMP280;59918;51.280;7.950;2023-03-23T11:16:30;96948.06;;;14.79
72054;BMP280;59918;51.280;7.950;2023-03-23T11:18:57;96938.56;;;15.35
72054;BMP280;59918;51.280;7.950;2023-03-23T11:21:23;96964.50;;;15.50
72054;BMP280;59918;51.280;7.950;2023-03-23T11:23:52;96966.94;;;15.16
72054;BMP280;59918;51.280;7.950;2023-03-23T11:31:23;96977.47;;;13.59
72054;BMP280;59918;51.280;7.950;2023-03-23T11:33:57;96981.59;;;13.17
72054;BMP280;59918;51.280;7.950;2023-03-23T11:36:28;96980.00;;;12.95
72054;BMP280;59918;51.280;7.950;2023-03-23T11:38:54;96967.44;;;12.82
72054;BMP280;59918;51.280;7.950;2023-03-23T11:41:19;96980.72;;;12.75
72054;BMP280;59918;51.280;7.950;2023-03-23T11:43:46;96968.44;;;12.49
72054;BMP280;59918;51.280;7.950;2023-03-23T11:46:20;96967.50;;;12.38
72054;BMP280;59918;51.280;7.950;2023-03-23T11:49:01;96966.03;;;12.26
72054;BMP280;59918;51.280;7.950;2023-03-23T11:56:30;96975.66;;;12.03
72054;BMP280;59918;51.280;7.950;2023-03-23T11:58:56;96972.78;;;12.00
72054;BMP280;59918;51.280;7.950;2023-03-23T12:01:24;96962.22;;;11.85
72054;BMP280;59918;51.280;7.950;2023-03-23T12:06:41;96944.13;;;11.68
72054;BMP280;59918;51.280;7.950;2023-03-23T12:11:35;96951.59;;;11.81
72054;BMP280;59918;51.280;7.950;2023-03-23T12:22:01;96942.94;;;12.03
72054;BMP280;59918;51.280;7.950;2023-03-23T12:24:51;96931.72;;;12.09
72054;BMP280;59918;51.280;7.950;2023-03-23T12:48:17;96923.81;;;13.92
72054;BMP280;59918;51.280;7.950;2023-03-23T12:53:27;96939.72;;;13.32
72054;BMP280;59918;51.280;7.950;2023-03-23T12:58:35;96946.94;;;12.92
72054;BMP280;59918;51.280;7.950;2023-03-23T13:06:04;96954.22;;;12.46
72054;BMP280;59918;51.280;7.950;2023-03-23T13:08:53;96962.56;;;12.21
72054;BMP280;59918;51.280;7.950;2023-03-23T13:11:20;96967.34;;;12.12
72054;BMP280;59918;51.280;7.950;2023-03-23T13:13:50;96959.44;;;12.02
72054;BMP280;59918;51.280;7.950;2023-03-23T13:16:20;96976.59;;;11.97
72054;BMP280;59918;51.280;7.950;2023-03-23T13:21:31;96964.38;;;11.76
72054;BMP280;59918;51.280;7.950;2023-03-23T13:24:01;96984.69;;;11.62
72054;BMP280;59918;51.280;7.950;2023-03-23T13:26:27;96979.06;;;11.65
72054;BMP280;59918;51.280;7.950;2023-03-23T13:31:36;96979.53;;;12.33
72054;BMP280;59918;51.280;7.950;2023-03-23T13:38:55;96961.09;;;13.27
72054;BMP280;59918;51.280;7.950;2023-03-23T13:41:21;96954.38;;;13.52
72054;BMP280;59918;51.280;7.950;2023-03-23T13:43:46;96952.31;;;13.76
72054;BMP280;59918;51.280;7.950;2023-03-23T13:46:32;96948.75;;;13.55
72054;BMP280;59918;51.280;7.950;2023-03-23T13:54:05;96961.22;;;13.37
72054;BMP280;59918;51.280;7.950;2023-03-23T13:56:40;96954.69;;;13.13
72054;BMP280;59918;51.280;7.950;2023-03-23T13:59:06;96954.28;;;13.00
72054;BMP280;59918;51.280;7.950;2023-03-23T14:01:33;96946.63;;;12.89
72054;BMP280;59918;51.280;7.950;2023-03-23T14:03:59;96947.47;;;12.78
72054;BMP280;59918;51.280;7.950;2023-03-23T14:06:24;96947.59;;;12.67
72054;BMP280;59918;51.280;7.950;2023-03-23T14:08:50;96954.47;;;12.61
72054;BMP280;59918;51.280;7.950;2023-03-23T14:11:19;96948.22;;;12.57
72054;BMP280;59918;51.280;7.950;2023-03-23T14:16:44;96950.41;;;12.33
72054;BMP280;59918;51.280;7.950;2023-03-23T14:19:18;96948.22;;;12.25
72054;BMP280;59918;51.280;7.950;2023-03-23T14:21:51;96957.53;;;12.26
72054;BMP280;59918;51.280;7.950;2023-03-23T14:24:17;96963.34;;;12.21
72054;BMP280;59918;51.280;7.950;2023-03-23T14:26:42;96964.59;;;12.19
72054;BMP280;59918;51.280;7.950;2023-03-23T14:29:09;96966.31;;;12.13
72054;BMP280;59918;51.280;7.950;2023-03-23T14:31:35;96956.72;;;12.09
72054;BMP280;59918;51.280;7.950;2023-03-23T14:34:02;96957.56;;;12.14
72054;BMP280;59918;51.280;7.950;2023-03-23T14:36:28;96946.34;;;12.20
72054;BMP280;59918;51.280;7.950;2023-03-23T14:41:38;96953.28;;;12.20
72054;BMP280;59918;51.280;7.950;2023-03-23T14:44:03;96967.00;;;12.09
72054;BMP280;59918;51.280;7.950;2023-03-23T14:46:30;96957.09;;;12.01
72054;BMP280;59918;51.280;7.950;2023-03-23T14:48:56;96970.91;;;11.95
72054;BMP280;59918;51.280;7.950;2023-03-23T14:51:24;96996.00;;;11.88
72054;BMP280;59918;51.280;7.950;2023-03-23T14:53:49;96991.00;;;11.82
72054;BMP280;59918;51.280;7.950;2023-03-23T14:56:18;96984.66;;;11.73
72054;BMP280;59918;51.280;7.950;2023-03-23T14:58:47;96990.25;;;11.70
72054;BMP280;59918;51.280;7.950;2023-03-23T15:01:13;96992.94;;;11.75
72054;BMP280;59918;51.280;7.950;2023-03-23T15:03:40;97014.19;;;11.82
72054;BMP280;59918;51.280;7.950;2023-03-23T15:06:09;97008.59;;;11.85
72054;BMP280;59918;51.280;7.950;2023-03-23T15:08:34;97004.72;;;11.99
72054;BMP280;59918;51.280;7.950;2023-03-23T15:13:50;96992.34;;;13.31
72054;BMP280;59918;51.280;7.950;2023-03-23T15:16:22;96986.97;;;13.53
72054;BMP280;59918;51.280;7.950;2023-03-23T15:18:53;96990.31;;;13.33
72054;BMP280;59918;51.280;7.950;2023-03-23T15:21:20;96985.09;;;13.28
72054;BMP280;59918;51.280;7.950;2023-03-23T15:23:47;96972.38;;;13.90
72054;BMP280;59918;51.280;7.950;2023-03-23T15:26:23;96965.38;;;14.12
72054;BMP280;59918;51.280;7.950;2023-03-23T15:28:49;96961.06;;;13.96
72054;BMP280;59918;51.280;7.950;2023-03-23T15:31:14;96946.16;;;13.77
72054;BMP280;59918;51.280;7.950;2023-03-23T15:33:39;96945.75;;;13.63
72054;BMP280;59918;51.280;7.950;2023-03-23T15:36:06;96940.16;;;13.50
72054;BMP280;59918;51.280;7.950;2023-03-23T15:38:32;96932.72;;;13.32
72054;BMP280;59918;51.280;7.950;2023-03-23T15:41:00;96928.53;;;13.26
72054;BMP280;59918;51.280;7.950;2023-03-23T15:43:35;96922.47;;;13.37
72054;BMP280;59918;51.280;7.950;2023-03-23T15:46:02;96925.22;;;13.31
72054;BMP280;59918;51.280;7.950;2023-03-23T15:48:27;96922.72;;;13.14
72054;BMP280;59918;51.280;7.950;2023-03-23T15:50:52;96918.63;;;12.97
72054;BMP280;59918;51.280;7.950;2023-03-23T15:53:21;96915.84;;;12.82
72054;BMP280;59918;51.280;7.950;2023-03-23T15:55:47;96917.22;;;12.74
72054;BMP280;59918;51.280;7.950;2023-03-23T15:58:13;96921.78;;;12.67
72054;BMP280;59918;51.280;7.950;2023-03-23T16:00:38;96921.88;;;12.55
72054;BMP280;59918;51.280;7.950;2023-03-23T16:03:05;96923.22;;;12.41
72054;BMP280;59918;51.280;7.950;2023-03-23T16:05:34;96928.63;;;12.24
72054;BMP280;59918;51.280;7.950;2023-03-23T16:07:59;96931.66;;;12.21
72054;BMP280;59918;51.280;7.950;2023-03-23T16:10:25;96925.50;;;12.22
72054;BMP280;59918;51.280;7.950;2023-03-23T16:12:50;96934.72;;;12.18
72054;BMP280;59918;51.280;7.950;2023-03-23T16:15:16;96938.78;;;12.14
72054;BMP280;59918;51.280;7.950;2023-03-23T16:17:41;96931.50;;;12.11